createdAt,value
2019-03-05T00:01:59.042Z,3.67
2019-03-05T00:04:27.855Z,3.67
2019-03-05T00:06:57.254Z,3.10
2019-03-05T00:09:25.985Z,3.77
2019-03-05T00:11:54.765Z,3.83
2019-03-05T00:14:23.562Z,4.07
2019-03-05T00:16:52.521Z,3.20
2019-03-05T00:19:21.379Z,4.00
2019-03-05T00:21:50.220Z,3.77
2019-03-05T00:24:54.978Z,3.53
2019-03-05T00:27:23.885Z,3.93
2019-03-05T00:30:04.796Z,3.70
2019-03-05T00:32:33.996Z,3.93
2019-03-05T00:35:24.088Z,4.20
2019-03-05T00:37:55.972Z,4.60
2019-03-05T00:40:30.456Z,4.03
2019-03-05T00:43:08.149Z,3.83
2019-03-05T00:45:59.396Z,3.90
2019-03-05T00:48:37.130Z,4.80
2019-03-05T00:51:36.085Z,4.70
2019-03-05T00:54:10.698Z,3.60
2019-03-05T00:57:02.238Z,4.10
2019-03-05T00:59:46.165Z,4.87
2019-03-05T01:02:18.080Z,4.67
2019-03-05T01:05:15.827Z,4.50
2019-03-05T01:07:44.714Z,4.43
2019-03-05T01:10:14.419Z,4.40
2019-03-05T01:12:43.287Z,4.37
2019-03-05T01:15:12.202Z,4.07
2019-03-05T01:17:41.100Z,4.37
2019-03-05T01:20:11.915Z,4.70
2019-03-05T01:22:40.878Z,4.00
2019-03-05T01:25:29.808Z,4.43
2019-03-05T01:27:58.695Z,4.47
2019-03-05T01:30:34.769Z,4.40
2019-03-05T01:33:05.229Z,4.43
2019-03-05T01:35:38.269Z,5.00
2019-03-05T01:38:07.207Z,4.33
2019-03-05T01:40:36.881Z,4.87
2019-03-05T01:43:05.722Z,4.53
2019-03-05T01:45:34.595Z,5.17
2019-03-05T01:48:03.574Z,5.17
2019-03-05T01:50:32.410Z,5.43
2019-03-05T01:53:01.275Z,5.50
2019-03-05T01:55:30.140Z,5.93
2019-03-05T01:57:58.947Z,5.57
2019-03-05T02:00:27.940Z,5.93
2019-03-05T02:02:56.656Z,6.77
2019-03-05T02:05:25.446Z,6.03
2019-03-05T02:07:55.495Z,6.33
2019-03-05T02:10:24.320Z,6.10
2019-03-05T02:12:53.141Z,6.07
2019-03-05T02:15:21.981Z,6.37
2019-03-05T02:17:50.787Z,6.53
2019-03-05T02:20:25.026Z,7.00
2019-03-05T02:23:09.574Z,6.70
2019-03-05T02:25:46.922Z,5.97
2019-03-05T02:28:46.291Z,6.10
2019-03-05T02:31:20.829Z,6.40
2019-03-05T02:34:04.451Z,5.70
2019-03-05T02:36:52.665Z,6.07
2019-03-05T02:39:40.989Z,5.90
2019-03-05T02:42:30.151Z,6.30
2019-03-05T02:45:35.292Z,5.63
2019-03-05T02:48:23.829Z,5.87
2019-03-05T02:51:01.297Z,5.57
2019-03-05T02:53:41.570Z,6.37
2019-03-05T02:56:25.476Z,6.47
2019-03-05T02:58:53.142Z,6.40
2019-03-05T03:01:26.215Z,6.13
2019-03-05T03:03:56.806Z,5.90
2019-03-05T03:06:27.219Z,6.10
2019-03-05T03:09:15.548Z,5.67
2019-03-05T03:11:44.425Z,5.47
2019-03-05T03:14:13.120Z,5.33
2019-03-05T03:16:42.121Z,6.00
2019-03-05T03:19:10.950Z,5.67
2019-03-05T03:21:39.809Z,6.13
2019-03-05T03:24:08.738Z,6.20
2019-03-05T03:26:37.686Z,5.37
2019-03-05T03:29:06.581Z,5.37
2019-03-05T03:31:35.519Z,5.90
2019-03-05T03:34:04.310Z,5.73
2019-03-05T03:36:33.227Z,5.50
2019-03-05T03:39:02.255Z,5.93
2019-03-05T03:41:31.048Z,6.43
2019-03-05T03:43:59.918Z,7.00
2019-03-05T03:46:29.009Z,6.33
2019-03-05T03:48:57.873Z,6.07
2019-03-05T03:51:26.678Z,6.70
2019-03-05T03:53:55.491Z,6.73
2019-03-05T03:56:24.299Z,6.63
2019-03-05T03:58:53.116Z,6.37
2019-03-05T04:01:21.962Z,7.37
2019-03-05T04:03:50.870Z,6.87
2019-03-05T04:06:19.735Z,7.50
2019-03-05T04:08:48.678Z,6.63
2019-03-05T04:11:17.548Z,7.60
2019-03-05T04:13:46.438Z,6.57
2019-03-05T04:16:15.272Z,7.90
2019-03-05T04:18:44.135Z,6.53
2019-03-05T04:21:12.877Z,7.20
2019-03-05T04:23:41.774Z,7.27
2019-03-05T04:26:10.564Z,6.30
2019-03-05T04:28:39.287Z,7.00
2019-03-05T04:31:08.111Z,8.87
2019-03-05T04:33:36.920Z,7.47
2019-03-05T04:36:05.793Z,5.97
2019-03-05T04:38:34.658Z,7.10
2019-03-05T04:41:03.464Z,6.53
2019-03-05T04:43:32.286Z,6.27
2019-03-05T04:46:05.435Z,5.67
2019-03-05T04:48:34.361Z,6.70
2019-03-05T04:51:13.708Z,7.50
2019-03-05T04:53:42.471Z,7.97
2019-03-05T04:56:11.347Z,8.10
2019-03-05T04:58:40.241Z,7.43
2019-03-05T05:01:09.076Z,6.93
2019-03-05T05:03:37.928Z,7.40
2019-03-05T05:06:06.753Z,7.27
2019-03-05T05:08:35.497Z,6.57
2019-03-05T05:11:04.235Z,7.03
2019-03-05T05:13:33.139Z,7.33
2019-03-05T05:16:01.881Z,6.90
2019-03-05T05:18:30.676Z,5.47
2019-03-05T05:20:59.492Z,6.57
2019-03-05T05:23:28.302Z,7.30
2019-03-05T05:25:57.702Z,7.23
2019-03-05T05:28:26.607Z,7.60
2019-03-05T05:30:55.507Z,8.27
2019-03-05T05:33:24.251Z,8.13
2019-03-05T05:35:53.037Z,6.20
2019-03-05T05:38:21.900Z,8.03
2019-03-05T05:40:50.708Z,7.70
2019-03-05T05:43:25.257Z,7.53
2019-03-05T05:45:54.772Z,6.73
2019-03-05T05:48:23.755Z,8.30
2019-03-05T05:50:52.633Z,7.63
2019-03-05T05:53:21.404Z,7.07
2019-03-05T05:55:50.288Z,7.93
2019-03-05T05:58:19.121Z,6.57
2019-03-05T06:00:49.562Z,7.00
2019-03-05T06:03:18.494Z,7.23
2019-03-05T06:05:47.402Z,7.30
2019-03-05T06:08:16.310Z,7.03
2019-03-05T06:10:45.173Z,7.03
2019-03-05T06:13:14.014Z,6.60
2019-03-05T06:15:42.956Z,6.33
2019-03-05T06:18:11.745Z,5.63
2019-03-05T06:20:42.534Z,6.17
2019-03-05T06:23:11.168Z,6.33
2019-03-05T06:25:39.999Z,5.17
2019-03-05T06:28:08.869Z,6.00
2019-03-05T06:30:42.168Z,5.73
2019-03-05T06:33:10.964Z,7.17
2019-03-05T06:35:39.738Z,5.43
2019-03-05T06:38:08.671Z,4.67
2019-03-05T06:40:37.471Z,5.53
2019-03-05T06:43:06.365Z,9.00
2019-03-05T06:45:35.052Z,6.80
2019-03-05T06:48:03.784Z,3.53
2019-03-05T06:50:32.561Z,5.70
2019-03-05T06:53:01.667Z,4.67
2019-03-05T06:55:30.584Z,7.27
2019-03-05T06:57:59.643Z,6.00
2019-03-05T07:00:34.938Z,6.50
2019-03-05T07:03:08.014Z,6.47
2019-03-05T07:06:12.560Z,6.67
2019-03-05T07:08:59.745Z,5.17
2019-03-05T07:11:34.951Z,4.93
2019-03-05T07:14:06.827Z,6.03
2019-03-05T07:16:55.674Z,6.03
2019-03-05T07:19:26.810Z,6.27
2019-03-05T07:21:58.856Z,6.07
2019-03-05T07:24:45.020Z,6.57
2019-03-05T07:27:15.789Z,5.30
2019-03-05T07:29:44.537Z,5.97
2019-03-05T07:32:13.446Z,6.07
2019-03-05T07:34:43.877Z,6.50
2019-03-05T07:37:13.391Z,6.20
2019-03-05T07:39:42.321Z,5.83
2019-03-05T07:42:11.215Z,6.60
2019-03-05T07:44:39.955Z,6.17
2019-03-05T07:47:09.031Z,6.27
2019-03-05T07:49:43.700Z,5.77
2019-03-05T07:52:08.680Z,5.07
2019-03-05T07:54:37.693Z,5.17
2019-03-05T07:57:06.525Z,4.90
2019-03-05T07:59:35.498Z,4.93
2019-03-05T08:02:04.576Z,5.23
2019-03-05T08:04:33.409Z,5.00
2019-03-05T08:07:02.275Z,4.77
2019-03-05T08:09:36.016Z,4.40
2019-03-05T08:12:07.839Z,4.70
2019-03-05T08:14:49.105Z,4.00
2019-03-05T08:17:18.064Z,3.50
2019-03-05T08:19:46.943Z,3.07
2019-03-05T08:22:15.945Z,2.40
2019-03-05T08:24:44.700Z,2.77
2019-03-05T08:27:13.508Z,2.13
2019-03-05T08:29:42.433Z,1.80
2019-03-05T08:32:11.598Z,1.80
2019-03-05T08:34:40.621Z,1.97
2019-03-05T08:37:09.524Z,1.70
2019-03-05T08:39:38.421Z,1.97
2019-03-05T08:42:07.305Z,2.27
2019-03-05T08:44:36.414Z,1.67
2019-03-05T08:47:05.236Z,1.50
2019-03-05T08:49:34.159Z,1.40
2019-03-05T08:52:02.988Z,1.50
2019-03-05T08:54:31.974Z,1.60
2019-03-05T08:57:00.669Z,1.43
2019-03-05T08:59:29.606Z,1.27
2019-03-05T09:01:58.480Z,1.53
2019-03-05T09:04:27.320Z,1.50
2019-03-05T09:06:56.334Z,1.40
2019-03-05T09:09:25.261Z,1.50
2019-03-05T09:11:54.202Z,1.40
2019-03-05T09:14:23.310Z,1.33
2019-03-05T09:16:52.203Z,1.40
2019-03-05T09:19:21.058Z,1.10
2019-03-05T09:21:50.838Z,1.10
2019-03-05T09:24:19.737Z,1.80
2019-03-05T09:26:51.432Z,1.80
2019-03-05T09:29:19.047Z,1.70
2019-03-05T09:31:47.902Z,1.63
2019-03-05T09:34:16.766Z,1.40
2019-03-05T09:36:50.861Z,1.47
2019-03-05T09:39:16.309Z,1.70
2019-03-05T09:41:45.168Z,1.40
2019-03-05T09:44:14.112Z,1.80
2019-03-05T09:46:43.180Z,2.10
2019-03-05T09:49:12.024Z,1.87
2019-03-05T09:51:41.096Z,2.13
2019-03-05T09:54:10.087Z,1.90
2019-03-05T09:56:38.890Z,1.63
2019-03-05T09:59:07.875Z,1.50
2019-03-05T10:01:36.839Z,1.47
2019-03-05T10:04:05.866Z,1.80
2019-03-05T10:06:34.875Z,2.00
2019-03-05T10:09:05.170Z,2.30
2019-03-05T10:11:34.201Z,2.77
2019-03-05T10:14:04.129Z,3.20
2019-03-05T10:16:33.009Z,3.30
2019-03-05T10:19:01.892Z,3.10
2019-03-05T10:21:30.721Z,3.43
2019-03-05T10:24:09.768Z,3.00
2019-03-05T10:26:30.072Z,3.73
2019-03-05T10:28:59.009Z,3.23
2019-03-05T10:31:27.875Z,3.07
2019-03-05T10:33:56.642Z,2.67
2019-03-05T10:36:25.528Z,3.33
2019-03-05T10:38:57.678Z,1.70
2019-03-05T10:41:24.851Z,1.30
2019-03-05T10:43:53.658Z,1.60
2019-03-05T10:46:22.533Z,2.00
2019-03-05T10:48:51.367Z,2.33
2019-03-05T10:51:20.331Z,2.40
2019-03-05T10:53:49.170Z,2.63
2019-03-05T10:56:18.297Z,1.43
2019-03-05T10:58:47.273Z,1.47
2019-03-05T11:01:16.272Z,1.67
2019-03-05T11:03:45.092Z,1.33
2019-03-05T11:06:13.936Z,1.60
2019-03-05T11:08:42.762Z,1.30
2019-03-05T11:11:13.854Z,1.17
2019-03-05T11:13:43.408Z,1.73
2019-03-05T11:16:12.239Z,1.00
2019-03-05T11:18:41.090Z,1.50
2019-03-05T11:21:10.148Z,2.00
2019-03-05T11:23:39.081Z,1.47
2019-03-05T11:26:07.833Z,1.20
2019-03-05T11:28:36.749Z,0.90
2019-03-05T11:31:06.456Z,0.87
2019-03-05T11:33:35.380Z,1.63
2019-03-05T11:36:04.392Z,1.63
2019-03-05T11:38:33.240Z,1.50
2019-03-05T11:41:02.716Z,1.93
2019-03-05T11:43:31.637Z,1.47
2019-03-05T11:46:00.447Z,1.37
2019-03-05T11:48:29.340Z,1.17
2019-03-05T11:50:58.254Z,1.30
2019-03-05T11:53:27.089Z,0.87
2019-03-05T11:55:55.914Z,1.20
2019-03-05T11:58:24.720Z,0.70
2019-03-05T12:00:55.150Z,1.07
2019-03-05T12:03:24.211Z,0.70
2019-03-05T12:05:53.344Z,0.70
2019-03-05T12:08:22.319Z,0.90
2019-03-05T12:10:51.099Z,0.80
2019-03-05T12:13:20.302Z,0.87
2019-03-05T12:15:49.119Z,1.10
2019-03-05T12:18:17.944Z,0.90
2019-03-05T12:20:46.794Z,0.80
2019-03-05T12:23:15.661Z,0.90
2019-03-05T12:25:44.540Z,0.93
2019-03-05T12:28:13.629Z,1.17
2019-03-05T12:30:42.348Z,0.80
2019-03-05T12:33:11.257Z,0.83
2019-03-05T12:35:40.089Z,0.90
2019-03-05T12:38:08.898Z,1.20
2019-03-05T12:40:37.701Z,0.80
2019-03-05T12:43:06.647Z,0.70
2019-03-05T12:45:35.488Z,0.73
2019-03-05T12:48:04.507Z,0.90
2019-03-05T12:50:38.928Z,0.93
2019-03-05T12:53:07.860Z,0.70
2019-03-05T12:55:36.759Z,1.90
2019-03-05T12:58:05.701Z,0.90
2019-03-05T13:00:36.409Z,0.93
2019-03-05T13:03:05.416Z,1.30
2019-03-05T13:05:34.250Z,1.10
2019-03-05T13:08:03.245Z,0.77
2019-03-05T13:10:37.579Z,0.80
2019-03-05T13:13:06.709Z,0.80
2019-03-05T13:15:42.863Z,1.10
2019-03-05T13:18:14.118Z,1.10
2019-03-05T13:20:42.126Z,1.03
2019-03-05T13:23:10.962Z,0.87
2019-03-05T13:25:39.821Z,1.20
2019-03-05T13:28:09.297Z,0.80
2019-03-05T13:30:40.211Z,1.03
2019-03-05T13:33:08.705Z,0.87
2019-03-05T13:35:37.514Z,1.00
2019-03-05T13:38:10.973Z,0.70
2019-03-05T13:40:40.686Z,0.87
2019-03-05T13:43:09.666Z,0.80
2019-03-05T13:45:42.222Z,1.00
2019-03-05T13:48:32.933Z,0.90
2019-03-05T13:51:07.362Z,1.10
2019-03-05T13:54:01.686Z,1.30
2019-03-05T13:56:44.039Z,0.93
2019-03-05T13:59:32.351Z,1.13
2019-03-05T14:02:01.188Z,1.40
2019-03-05T14:04:35.675Z,1.33
2019-03-05T14:07:13.292Z,1.00
2019-03-05T14:09:40.940Z,0.83
2019-03-05T14:12:09.652Z,0.70
2019-03-05T14:14:38.488Z,1.00
2019-03-05T14:17:24.880Z,1.20
2019-03-05T14:19:53.674Z,1.10
2019-03-05T14:22:22.471Z,1.10
2019-03-05T14:25:01.462Z,1.30
2019-03-05T14:27:21.919Z,1.63
2019-03-05T14:29:50.748Z,1.37
2019-03-05T14:32:19.691Z,1.30
2019-03-05T14:34:51.566Z,1.90
2019-03-05T14:37:20.431Z,1.30
2019-03-05T14:39:49.069Z,1.40
2019-03-05T14:42:18.006Z,1.27
2019-03-05T14:44:47.099Z,1.73
2019-03-05T14:47:15.927Z,1.77
2019-03-05T14:49:44.918Z,2.40
2019-03-05T14:52:13.677Z,2.03
2019-03-05T14:54:42.743Z,2.10
2019-03-05T14:57:11.506Z,1.30
2019-03-05T14:59:40.316Z,0.97
2019-03-05T15:02:09.135Z,1.27
2019-03-05T15:04:37.956Z,1.00
2019-03-05T15:07:06.817Z,2.03
2019-03-05T15:09:36.541Z,2.90
2019-03-05T15:12:05.355Z,2.10
2019-03-05T15:14:33.987Z,2.20
2019-03-05T15:17:02.824Z,1.40
2019-03-05T15:19:34.486Z,1.37
2019-03-05T15:22:02.052Z,1.20
2019-03-05T15:24:30.808Z,1.17
2019-03-05T15:26:59.641Z,1.00
2019-03-05T15:29:28.377Z,0.80
2019-03-05T15:31:57.369Z,0.93
2019-03-05T15:34:26.434Z,2.40
2019-03-05T15:36:55.085Z,2.53
2019-03-05T15:39:23.812Z,3.80
2019-03-05T15:41:52.682Z,4.60
2019-03-05T15:44:21.364Z,4.67
2019-03-05T15:46:50.486Z,4.23
2019-03-05T15:49:19.262Z,3.87
2019-03-05T15:51:48.046Z,4.13
2019-03-05T15:54:16.951Z,4.37
2019-03-05T15:56:45.800Z,5.87
2019-03-05T15:59:14.707Z,6.47
2019-03-05T16:01:43.478Z,3.93
2019-03-05T16:04:12.342Z,4.03
2019-03-05T16:06:40.957Z,4.40
2019-03-05T16:09:16.049Z,4.60
2019-03-05T16:11:45.325Z,5.10
2019-03-05T16:14:14.151Z,7.77
2019-03-05T16:16:42.915Z,7.00
2019-03-05T16:19:12.380Z,5.27
2019-03-05T16:21:42.858Z,4.33
2019-03-05T16:24:11.726Z,3.47
2019-03-05T16:26:40.575Z,3.20
2019-03-05T16:29:09.506Z,3.50
2019-03-05T16:31:39.829Z,4.00
2019-03-05T16:34:13.091Z,4.20
2019-03-05T16:36:44.858Z,4.30
2019-03-05T16:39:15.659Z,5.87
2019-03-05T16:41:53.491Z,6.10
2019-03-05T16:44:33.027Z,6.13
2019-03-05T16:47:20.182Z,6.70
2019-03-05T16:50:07.104Z,5.67
2019-03-05T16:52:52.779Z,5.27
2019-03-05T16:55:23.549Z,4.97
2019-03-05T16:58:09.897Z,4.77
2019-03-05T17:00:49.596Z,3.07
2019-03-05T17:03:34.783Z,3.10
2019-03-05T17:06:05.282Z,2.50
2019-03-05T17:08:38.537Z,2.57
2019-03-05T17:11:12.102Z,2.03
2019-03-05T17:13:41.077Z,2.50
2019-03-05T17:16:09.898Z,2.20
2019-03-05T17:18:38.896Z,2.03
2019-03-05T17:21:07.733Z,1.70
2019-03-05T17:23:36.436Z,1.87
2019-03-05T17:26:05.331Z,1.63
2019-03-05T17:28:34.093Z,1.53
2019-03-05T17:31:03.070Z,1.77
2019-03-05T17:33:32.039Z,2.50
2019-03-05T17:36:00.903Z,3.40
2019-03-05T17:38:29.838Z,3.60
2019-03-05T17:40:58.606Z,4.23
2019-03-05T17:43:27.366Z,3.20
2019-03-05T17:45:56.108Z,3.20
2019-03-05T17:48:26.461Z,3.73
2019-03-05T17:50:55.213Z,3.60
2019-03-05T17:53:24.100Z,4.10
2019-03-05T17:55:53.097Z,5.10
2019-03-05T17:58:21.874Z,5.33
2019-03-05T18:00:51.545Z,5.70
2019-03-05T18:03:20.489Z,5.77
2019-03-05T18:05:49.194Z,5.53
2019-03-05T18:08:18.115Z,7.03
2019-03-05T18:10:47.032Z,6.93
2019-03-05T18:13:15.814Z,7.10
2019-03-05T18:15:44.717Z,8.23
2019-03-05T18:18:13.409Z,7.67
2019-03-05T18:20:42.272Z,5.13
2019-03-05T18:23:11.109Z,5.00
2019-03-05T18:25:39.955Z,5.50
2019-03-05T18:28:08.914Z,5.67
2019-03-05T18:30:37.947Z,6.20
2019-03-05T18:33:06.736Z,6.07
2019-03-05T18:35:35.568Z,5.30
2019-03-05T18:38:04.519Z,6.10
2019-03-05T18:40:33.492Z,5.40
2019-03-05T18:43:02.581Z,5.80
